Gibraltar, Michigan
Current Conditions -  °F | °C
As of 9:15 AM on Thursday 29 Jan 2015 (Local Time) from KONZ Reporting Station
Overcast Overcast  
Wind Chill: -5°   Ceiling: 4400
Heat Index: -1°   Visibility: 10mi
Dew Point: -4°   Wind: 8mph
Humidity: 80%   Direction: 150°SSE
Pressure: 29.78"   Gusts: NA
Location:  42.0725°N, 83.2169°W
Report Text: KONZ 291415Z AUTO 15007KT 10SM OVC044 M01/M04 A2978 RMK AO2
Loading
Personal Weather Stations






























Interactive Weather Map New forecast layout! Learn more

10-Day Weather Forecast

Advertisements
Track Severe Weather on mobile